• Join FlightAware (Why Join?)
  • Login
  • US Flag 
04:34PM EDT


 

Airport Tracker/Info


-or-


 

Live Flight TrackerFlight Track Log ✈ WIS101 ✈ 14-May-2013 ✈ KFAR - KANE

Flight Track Log - Related Links

Times and Time Zones

All times are in EDT time to prevent confusion due to time zone crossing. See the WIS101 flight status page for this flight to view local times or setup timezone preferences in your user account.

Time Position Orientation Groundspeed Altitude Reporting Facility
EDT Latitude Longitude Course Direction KTS MPH feet Rate Location/Type
07:25PM 46.9925 -96.6819 83° East 174 200 3,500  Level Minneapolis Center
07:26PM 46.9425 -96.6061 134° Southeast 192 221 4,300 660 Climbing Minneapolis Center
07:27PM 46.8992 -96.5647 147° Southeast 194 223 5,000 600 Climbing Minneapolis Center
07:28PM 46.7378 -96.8279 129° Southeast  Level FlightAware Approximate
07:28PM 46.8511 -96.5331 156° South 181 208 5,600  Level Minneapolis Center
07:29PM 46.7007 -96.7612 129° Southeast  Level FlightAware Approximate
07:29PM 46.8019 -96.4992 155° Southeast 186 214 6,200  Level Minneapolis Center
07:30PM 46.7514 -96.4650 155° Southeast 191 220 6,700 480 Climbing Minneapolis Center
07:31PM 46.6986 -96.4303 156° South 197 227 7,300 480 Climbing Minneapolis Center
07:32PM 46.6508 -96.3975 155° Southeast 197 227 7,800 480 Climbing Minneapolis Center
07:33PM 46.5967 -96.3628 156° South 202 232 8,300 480 Climbing Minneapolis Center
07:34PM 46.5433 -96.3267 155° Southeast 204 235 8,900 300 Climbing Minneapolis Center
07:35PM 46.4867 -96.2881 155° Southeast 215 247 9,000  Climbing Minneapolis Center
07:36PM 46.4306 -96.2419 150° Southeast 222 255 9,000 -60 Level Minneapolis Center
07:37PM 46.3933 -96.1697 127° Southeast 228 262 8,900 -60 Descending Minneapolis Center
07:38PM 46.3522 -96.1000 130° Southeast 221 254 8,900  Level Minneapolis Center
07:39PM 46.3147 -96.0256 126° Southeast 219 252 9,000  Climbing Minneapolis Center
07:40PM 46.2781 -95.9461 124° Southeast 226 260 8,900  Descending Minneapolis Center
07:41PM 46.2444 -95.8764 125° Southeast 221 254 9,000  Climbing Minneapolis Center
07:42PM 46.2131 -95.8075 123° Southeast 220 253 9,000  Level Minneapolis Center
07:44PM 46.1722 -95.7181 123° Southeast 221 254 9,000 -60 Level Minneapolis Center
07:45PM 46.1294 -95.6267 124° Southeast 224 258 8,900  Descending Minneapolis Center
07:46PM 46.0944 -95.5517 124° Southeast 226 260 9,000  Climbing Minneapolis Center
07:47PM 46.0589 -95.4786 125° Southeast 226 260 9,000  Level Minneapolis Center
07:48PM 46.0239 -95.4011 123° Southeast 227 261 9,000  Level Minneapolis Center
07:49PM 45.9906 -95.3211 121° Southeast 229 264 9,000  Level Minneapolis Center
07:50PM 45.9658 -95.2569 119° Southeast 229 264 9,000 -60 Level Minneapolis Center
07:51PM 45.9192 -95.1486 122° Southeast 228 262 8,900  Descending Minneapolis Center
07:52PM 45.8847 -95.0731 123° Southeast 227 261 9,000  Climbing Minneapolis Center
07:53PM 45.8550 -95.0014 121° Southeast 228 262 8,900  Descending Minneapolis Center
07:54PM 45.8200 -94.9261 124° Southeast 228 262 9,000  Climbing Minneapolis Center
07:55PM 45.7878 -94.8478 121° Southeast 228 262 9,000  Level Minneapolis Center
07:56PM 45.7472 -94.7514 121° Southeast 235 270 9,100  Climbing Minneapolis Center
07:57PM 45.7117 -94.6694 122° Southeast 240 276 9,000 -60 Descending Minneapolis Center
07:58PM 45.6756 -94.5911 123° Southeast 239 275 9,000  Level Minneapolis Center
07:59PM 45.6411 -94.5142 123° Southeast 234 269 9,100 -120 Climbing Minneapolis Center
08:00PM 45.6058 -94.4356 123° Southeast 235 270 8,800 -540 Descending Minneapolis Center
08:01PM 45.5697 -94.3464 120° Southeast 249 287 8,100 -720 Descending Minneapolis Center
08:02PM 45.5322 -94.2550 120° Southeast 263 303 7,400 -780 Descending Minneapolis Center
08:03PM 45.4883 -94.1550 122° Southeast 249 287 6,600 -780 Descending Minneapolis Center
08:04PM 45.4531 -94.0744 122° Southeast 241 277 5,900 -720 Descending Minneapolis Center
08:05PM 45.4161 -93.9944 123° Southeast 242 278 5,100 -420 Descending Minneapolis Center
08:06PM 45.3764 -93.9053 122° Southeast 223 257 5,000 -60 Descending Minneapolis Center
08:07PM 45.3464 -93.8344 121° Southeast 211 243 5,000  Level Minneapolis Center
08:08PM 45.3153 -93.7656 123° Southeast 209 241 5,000  Level Minneapolis Center
08:09PM 45.2808 -93.6822 120° Southeast 205 236 5,000  Level Minneapolis Center
08:11PM 45.2536 -93.6158 120° Southeast 198 228 5,000 -120 Level Minneapolis Center
08:12PM 45.2325 -93.5439 113° Southeast 197 227 4,800 -480 Descending Minneapolis Center
08:13PM 45.2117 -93.4658 111° Southeast 209 241 4,100 -780 Descending Minneapolis Center
08:14PM 45.1900 -93.3831 110° East 221 254 3,300 -960 Descending Minneapolis Center
08:15PM 45.1694 -93.2994 109° East 224 258 2,200 -660 Descending Minneapolis Center
08:16PM 45.1667 -93.2211 93° East 197 227 2,000 -420 Descending Minneapolis Center
08:17PM 45.1450 -93.1819 128° Southeast 137 158 1,400 -420 Descending Minneapolis Center
08:18PM 45.1458 -93.2178 272° West 125 144 1,200 -240 Descending Minneapolis Center
08:20PM 45.1449 -93.2102 90° East  Level Estimated